KHSP

Details ICAO KHSP
Name INGALLS FLD
Region United States
Timezone America/New_York (UTC-5.0)
Plans Departing 1
Arriving 7
Stats Elevation 3,792 ft / 1,156 m (AMSL)
Location 37.951453° -79.833889°
Runways 1
Magnetic Variation 8.903° W
Sunrise 2017-12-17 12:30:50 UTC / 2017-12-17 07:30:50 Local
Sunset 2017-12-17 22:03:01 UTC / 2017-12-17 17:03:01 Local
Advertisement - Login to hide

Runways

ID Width Length Bearing (true) Bearing (mag) Surface Threshold Offset Overrun Length
07 100 ft / 30 m 5,593 ft / 1,705 m 58.70° 67.60° Asphalt 0 ft / 0 m 0 ft / 0 m
25 100 ft / 30 m 5,593 ft / 1,705 m 238.71° 247.61° Asphalt 0 ft / 0 m 0 ft / 0 m

Approach Navaids

Runway Type Ident Frequency Range Bearing (true) Bearing (mag) Slope Elevation
25 Localiser IHSP 108.70 MHz 18 nm / 33 km 238.71° 247.61° - 3,792 ft / 1,156 m (AMSL)
25 Glidescope IHSP 108.70 MHz 10 nm / 19 km 238.71° 247.61° 3.00° 3,763 ft / 1,147 m (AMSL)

Map

Weather


0- 5 10 15 20 25 30 35+ Temperature / ° C

Clouds and Precipitation
Forecast for 2017-12-18 00:00 UTC. Updated 35 minutes ago

Ground ~20,000 ft ~40,000 ft Winds

METAR

KHSP 171935Z AUTO 22005KT 10SM OVC065 07/M21 A3010 RMK AO2 T00721209

TAF

Not found

Frequencies

Recorded 118.80 MHz AWOS 3
Unicom 123.00 MHz CTAF/UNICOM
Warning: Do not use this data for real-world aviation or navigation. No guarantee of current accuracy is given.